createdAt,value
2023-04-27T09:40:04.382Z,53.20
2023-04-27T09:42:31.710Z,52.90
2023-04-27T09:44:59.741Z,53.80
2023-04-27T09:47:28.685Z,54.40
2023-04-27T09:49:56.280Z,54.50
2023-04-27T09:52:23.217Z,54.20
2023-04-27T09:54:50.048Z,54.50
2023-04-27T09:57:32.645Z,54.40
2023-04-27T10:00:08.071Z,54.00
2023-04-27T10:02:53.269Z,54.10
2023-04-27T10:05:50.223Z,54.00
2023-04-27T10:08:18.050Z,53.50
2023-04-27T10:10:50.020Z,56.40
2023-04-27T10:13:27.207Z,53.00
2023-04-27T10:15:54.374Z,53.60
2023-04-27T10:18:31.381Z,53.40
2023-04-27T10:21:10.453Z,52.00
2023-04-27T10:23:50.641Z,58.70
2023-04-27T10:26:28.225Z,48.80
2023-04-27T10:28:59.436Z,46.90
2023-04-27T10:31:30.178Z,51.80
2023-04-27T10:34:10.696Z,49.60
2023-04-27T10:36:42.759Z,49.40
2023-04-27T10:39:29.848Z,50.50
2023-04-27T10:42:03.509Z,49.80
2023-04-27T10:44:32.168Z,47.90
2023-04-27T10:47:01.620Z,49.70
2023-04-27T10:49:29.562Z,48.50
2023-04-27T10:51:58.927Z,47.30
2023-04-27T10:54:29.594Z,54.20
2023-04-27T10:57:10.823Z,51.70
2023-04-27T10:59:55.520Z,50.00
2023-04-27T11:02:26.865Z,50.10
2023-04-27T11:04:54.611Z,48.00
2023-04-27T11:07:29.253Z,49.50
2023-04-27T11:09:56.170Z,50.80
2023-04-27T11:12:24.227Z,49.60
2023-04-27T11:14:51.135Z,49.40
2023-04-27T11:17:30.931Z,49.70
2023-04-27T11:19:58.010Z,49.20
2023-04-27T11:22:24.861Z,49.40
2023-04-27T11:24:52.754Z,50.00
2023-04-27T11:27:22.270Z,50.50
2023-04-27T11:29:51.509Z,50.80
2023-04-27T11:32:23.454Z,50.70
2023-04-27T11:34:53.745Z,50.00
2023-04-27T11:37:25.988Z,49.70
2023-04-27T11:40:00.039Z,50.80
2023-04-27T11:42:28.813Z,51.30
2023-04-27T11:45:01.204Z,52.40
2023-04-27T11:47:30.158Z,50.70
2023-04-27T11:49:59.669Z,50.60
2023-04-27T11:52:31.945Z,51.10
2023-04-27T11:55:00.375Z,50.40
2023-04-27T11:57:29.321Z,52.10
2023-04-27T11:59:57.659Z,54.30
2023-04-27T12:02:24.542Z,53.10
2023-04-27T12:04:51.786Z,52.90
2023-04-27T12:07:19.255Z,52.10
2023-04-27T12:09:46.195Z,51.90
2023-04-27T12:12:14.157Z,51.70
2023-04-27T12:14:43.752Z,51.40
2023-04-27T12:17:10.933Z,52.20
2023-04-27T12:19:37.954Z,51.90
2023-04-27T12:22:05.238Z,52.00
2023-04-27T12:24:32.410Z,52.00
2023-04-27T12:26:59.717Z,53.10
2023-04-27T12:29:26.802Z,53.50
2023-04-27T12:31:53.641Z,53.40
2023-04-27T12:34:23.156Z,53.00
2023-04-27T12:36:49.973Z,52.90
2023-04-27T12:39:19.835Z,53.20
2023-04-27T12:41:48.166Z,53.10
2023-04-27T12:44:16.108Z,52.30
2023-04-27T12:46:44.642Z,52.80
2023-04-27T12:49:14.535Z,53.10
2023-04-27T12:51:41.718Z,53.80
2023-04-27T12:54:12.723Z,53.10
2023-04-27T12:56:39.876Z,54.80
2023-04-27T12:59:06.828Z,54.50
2023-04-27T13:01:33.818Z,54.20
2023-04-27T13:04:03.083Z,54.00
2023-04-27T13:06:31.889Z,53.50
2023-04-27T13:08:59.463Z,53.30
2023-04-27T13:11:26.907Z,52.40
2023-04-27T13:13:55.038Z,52.30
2023-04-27T13:16:25.063Z,53.10
2023-04-27T13:18:53.225Z,53.30
2023-04-27T13:21:20.438Z,55.70
2023-04-27T13:23:47.948Z,53.70
2023-04-27T13:26:15.824Z,53.10
2023-04-27T13:28:42.959Z,53.70
2023-04-27T13:31:10.092Z,56.00
2023-04-27T13:33:44.660Z,53.80
2023-04-27T13:36:12.631Z,53.30
2023-04-27T13:38:39.830Z,54.30
2023-04-27T13:41:06.887Z,52.60
2023-04-27T13:43:33.855Z,53.30
2023-04-27T13:46:01.828Z,51.80
2023-04-27T13:48:29.209Z,52.30
2023-04-27T13:50:56.358Z,53.50
2023-04-27T13:53:26.979Z,53.00
2023-04-27T13:55:58.161Z,53.10
2023-04-27T13:58:27.040Z,53.40
2023-04-27T14:00:54.611Z,52.90
2023-04-27T14:03:22.815Z,53.50
2023-04-27T14:05:51.378Z,53.30
2023-04-27T14:08:19.159Z,53.80
2023-04-27T14:10:46.437Z,54.70
2023-04-27T14:13:13.535Z,54.30
2023-04-27T14:15:41.227Z,54.50
2023-04-27T14:18:09.246Z,54.20
2023-04-27T14:20:37.363Z,53.80
2023-04-27T14:23:05.932Z,54.10
2023-04-27T14:25:34.471Z,54.00
2023-04-27T14:28:04.031Z,53.80
2023-04-27T14:30:34.872Z,53.50
2023-04-27T14:33:02.605Z,53.30
2023-04-27T14:35:29.837Z,54.40
2023-04-27T14:38:01.833Z,53.60
2023-04-27T14:40:32.833Z,53.40
2023-04-27T14:42:59.866Z,53.40
2023-04-27T14:45:33.565Z,53.00
2023-04-27T14:48:03.934Z,53.20
2023-04-27T14:50:31.041Z,53.10
2023-04-27T14:52:58.865Z,53.30
2023-04-27T14:55:25.992Z,53.20
2023-04-27T14:57:52.885Z,53.90
2023-04-27T15:00:19.882Z,53.10
2023-04-27T15:02:46.956Z,52.90
2023-04-27T15:05:13.869Z,53.30
2023-04-27T15:07:40.887Z,53.10
2023-04-27T15:10:08.270Z,54.70
2023-04-27T15:12:35.129Z,53.80
2023-04-27T15:15:02.032Z,53.00
2023-04-27T15:17:29.593Z,53.50
2023-04-27T15:19:56.507Z,53.00
2023-04-27T15:22:23.765Z,53.10
2023-04-27T15:24:50.924Z,53.20
2023-04-27T15:27:17.720Z,54.10
2023-04-27T15:29:44.659Z,52.70
2023-04-27T15:32:11.692Z,53.00
2023-04-27T15:34:38.740Z,52.20
2023-04-27T15:37:05.573Z,52.30
2023-04-27T15:39:32.499Z,54.10
2023-04-27T15:41:59.816Z,53.50
2023-04-27T15:44:27.040Z,52.40
2023-04-27T15:46:53.928Z,53.80
2023-04-27T15:49:21.578Z,53.80
2023-04-27T15:51:49.185Z,53.00
2023-04-27T15:54:17.751Z,53.40
2023-04-27T15:56:47.204Z,54.30
2023-04-27T15:59:14.253Z,54.40
2023-04-27T16:01:41.281Z,54.80
2023-04-27T16:04:08.342Z,54.30
2023-04-27T16:06:36.405Z,54.70
2023-04-27T16:09:04.001Z,54.90
2023-04-27T16:11:33.890Z,54.20
2023-04-27T16:14:00.905Z,54.70
2023-04-27T16:16:27.678Z,55.50
2023-04-27T16:18:58.815Z,56.10
2023-04-27T16:21:25.878Z,57.00
2023-04-27T16:23:53.192Z,57.10
2023-04-27T16:26:19.975Z,57.60
2023-04-27T16:28:46.737Z,57.10
2023-04-27T16:31:16.658Z,57.40
2023-04-27T16:33:43.542Z,57.90
2023-04-27T16:36:10.936Z,58.40
2023-04-27T16:38:39.300Z,58.70
2023-04-27T16:41:06.365Z,59.00
2023-04-27T16:43:33.881Z,59.20
2023-04-27T16:46:03.669Z,59.40
2023-04-27T16:48:30.653Z,59.80
2023-04-27T16:51:00.300Z,59.80
2023-04-27T16:53:27.095Z,59.90
2023-04-27T16:55:53.914Z,60.70
2023-04-27T16:58:20.807Z,60.30
2023-04-27T17:00:47.561Z,60.80
2023-04-27T17:03:14.660Z,60.50
2023-04-27T17:05:41.836Z,60.70
2023-04-27T17:08:08.837Z,60.90
2023-04-27T17:10:36.743Z,61.20
2023-04-27T17:13:07.782Z,61.40
2023-04-27T17:15:34.622Z,61.90
2023-04-27T17:18:08.065Z,61.20
2023-04-27T17:20:34.969Z,60.50
2023-04-27T17:23:04.384Z,60.80
2023-04-27T17:25:31.214Z,61.10
2023-04-27T17:28:00.777Z,61.70
2023-04-27T17:30:28.248Z,61.70
2023-04-27T17:32:55.056Z,61.90
2023-04-27T17:35:22.043Z,61.90
2023-04-27T17:37:48.913Z,62.40
2023-04-27T17:40:20.532Z,61.50
2023-04-27T17:42:47.670Z,60.40
2023-04-27T17:45:14.681Z,60.20
2023-04-27T17:47:42.016Z,59.80
2023-04-27T17:50:09.574Z,59.70
2023-04-27T17:52:36.386Z,60.10
2023-04-27T17:55:03.474Z,59.90
2023-04-27T17:57:30.341Z,60.00
2023-04-27T17:59:57.218Z,60.00
2023-04-27T18:02:24.184Z,59.80
2023-04-27T18:04:51.372Z,59.80
2023-04-27T18:07:19.336Z,59.70
2023-04-27T18:09:46.152Z,60.10
2023-04-27T18:12:12.958Z,60.00
2023-04-27T18:14:39.830Z,59.90
2023-04-27T18:17:06.611Z,60.30
2023-04-27T18:19:33.521Z,61.40
2023-04-27T18:22:03.289Z,61.20
2023-04-27T18:24:30.129Z,61.40
2023-04-27T18:26:57.872Z,61.70
2023-04-27T18:29:25.881Z,61.60
2023-04-27T18:31:53.516Z,61.20
2023-04-27T18:34:20.479Z,61.60
2023-04-27T18:36:51.857Z,60.30
2023-04-27T18:39:20.373Z,60.60
2023-04-27T18:41:47.221Z,62.00
2023-04-27T18:44:15.337Z,65.90
2023-04-27T18:46:42.588Z,65.30
2023-04-27T18:49:09.369Z,65.70
2023-04-27T18:51:36.153Z,64.80
2023-04-27T18:54:02.977Z,64.60
2023-04-27T18:56:34.155Z,65.70
2023-04-27T18:59:01.140Z,65.10
2023-04-27T19:01:31.495Z,65.00
2023-04-27T19:03:59.124Z,64.30
2023-04-27T19:06:26.462Z,63.30
2023-04-27T19:08:53.383Z,62.60
2023-04-27T19:11:22.306Z,62.60
2023-04-27T19:13:50.579Z,62.70
2023-04-27T19:16:18.054Z,62.40
2023-04-27T19:18:44.894Z,62.50
2023-04-27T19:21:12.895Z,62.80
2023-04-27T19:23:39.850Z,62.50
2023-04-27T19:26:13.355Z,63.30
2023-04-27T19:28:40.710Z,62.90
2023-04-27T19:31:07.683Z,62.40
2023-04-27T19:33:34.527Z,62.20
2023-04-27T19:36:01.483Z,62.50
2023-04-27T19:38:28.432Z,62.70
2023-04-27T19:40:55.355Z,62.20
2023-04-27T19:43:22.179Z,62.60
2023-04-27T19:45:49.418Z,62.70
2023-04-27T19:48:16.604Z,63.50
2023-04-27T19:50:44.086Z,64.70
2023-04-27T19:53:11.222Z,66.20
2023-04-27T19:55:39.127Z,66.00
2023-04-27T19:58:06.895Z,66.90
2023-04-27T20:00:34.212Z,68.00
2023-04-27T20:03:01.333Z,67.90
